Time;durP1;ratioP1;P1;durP2;ratioP2;P2;SDS_P1;SDS_P2;PMS_P1;PMS_P2;Temp;Humidity;BMP_temperature;BMP_pressure;BME280_temperature;BME280_humidity;BME280_pressure;Samples;Min_cycle;Max_cycle;Signal;HPM_P1;HPM_P2
2021/10/15 00:02:18;;;;;;;9.80;4.90;;;12.40;99.90;;;;;;5053015;28;20091;-79
2021/10/15 00:04:46;;;;;;;12.05;5.40;;;12.30;99.90;;;;;;5053989;28;20540;-80
2021/10/15 00:07:13;;;;;;;12.13;5.57;;;12.30;99.90;;;;;;5055678;28;20137;-80
2021/10/15 00:09:40;;;;;;;10.38;4.80;;;12.20;99.90;;;;;;5055933;28;20132;-80
2021/10/15 00:12:10;;;;;;;10.35;5.03;;;12.20;99.90;;;;;;5054445;28;20061;-80
2021/10/15 00:14:47;;;;;;;10.77;4.85;;;12.20;99.90;;;;;;5057267;28;20049;-81
2021/10/15 00:17:13;;;;;;;7.35;4.60;;;12.20;99.90;;;;;;5056313;28;20048;-80
2021/10/15 00:19:40;;;;;;;6.70;4.40;;;12.20;99.90;;;;;;5054084;28;20131;-78
2021/10/15 00:22:08;;;;;;;9.20;4.78;;;12.10;99.90;;;;;;5052745;28;20053;-79
2021/10/15 00:24:35;;;;;;;9.30;4.78;;;12.10;99.90;;;;;;5052067;28;20076;-79
2021/10/15 00:27:02;;;;;;;10.15;5.10;;;12.10;99.90;;;;;;5052113;28;20136;-77
2021/10/15 00:29:29;;;;;;;11.75;5.15;;;12.10;99.90;;;;;;5055244;28;20070;-79
2021/10/15 00:31:56;;;;;;;16.50;5.05;;;12.00;99.90;;;;;;5054419;28;20041;-79
2021/10/15 00:34:23;;;;;;;8.20;4.63;;;12.00;99.90;;;;;;5054084;28;20052;-80
2021/10/15 00:36:50;;;;;;;9.45;5.35;;;12.00;99.90;;;;;;5052952;28;20132;-80
2021/10/15 00:39:18;;;;;;;10.68;5.10;;;12.00;99.90;;;;;;5051966;28;20147;-78
2021/10/15 00:41:45;;;;;;;17.17;5.60;;;11.90;99.90;;;;;;5053262;28;20135;-77
2021/10/15 00:44:14;;;;;;;11.20;5.18;;;11.90;99.90;;;;;;5053627;28;20183;-79
2021/10/15 00:46:43;;;;;;;6.90;5.07;;;11.90;99.90;;;;;;5054109;28;20080;-79
2021/10/15 00:49:12;;;;;;;9.02;5.38;;;11.90;99.90;;;;;;5054142;28;20080;-79
2021/10/15 00:51:40;;;;;;;9.77;5.38;;;11.90;99.90;;;;;;5051239;28;20147;-78
2021/10/15 00:54:07;;;;;;;11.50;5.43;;;11.90;99.90;;;;;;5055551;28;20060;-79
2021/10/15 00:56:35;;;;;;;9.05;5.40;;;11.80;99.90;;;;;;5051695;28;20468;-78
2021/10/15 00:59:02;;;;;;;8.57;5.25;;;11.80;99.90;;;;;;5052082;28;20542;-78
2021/10/15 01:01:29;;;;;;;8.80;5.07;;;11.80;99.90;;;;;;5051228;28;20056;-79
2021/10/15 01:03:59;;;;;;;10.65;5.30;;;11.80;99.90;;;;;;5051206;28;20135;-78
2021/10/15 01:06:26;;;;;;;10.05;5.50;;;11.70;99.90;;;;;;5050872;28;20045;-78
2021/10/15 01:08:53;;;;;;;12.48;5.88;;;11.70;99.90;;;;;;5051310;28;20159;-79
2021/10/15 01:11:20;;;;;;;11.77;6.05;;;11.60;99.90;;;;;;5051659;28;20045;-78
2021/10/15 01:13:49;;;;;;;8.02;5.20;;;11.60;99.90;;;;;;5050853;28;20045;-78
2021/10/15 01:16:17;;;;;;;11.90;6.00;;;11.60;99.90;;;;;;5050990;28;20095;-77
2021/10/15 01:18:49;;;;;;;10.25;5.53;;;11.60;99.90;;;;;;5051739;28;20049;-78
2021/10/15 01:21:17;;;;;;;11.55;6.60;;;11.60;99.90;;;;;;5051746;28;20071;-77
2021/10/15 01:23:46;;;;;;;11.25;5.97;;;11.50;99.90;;;;;;5050925;28;20049;-77
2021/10/15 01:26:13;;;;;;;9.50;5.80;;;11.40;99.90;;;;;;5050677;28;20084;-77
2021/10/15 01:28:40;;;;;;;10.73;5.80;;;11.50;99.90;;;;;;5050913;28;20133;-76
2021/10/15 01:31:07;;;;;;;12.82;5.60;;;11.50;99.90;;;;;;5050763;28;20135;-78
2021/10/15 01:33:35;;;;;;;13.77;7.07;;;11.40;99.90;;;;;;5050981;28;20103;-76
2021/10/15 01:36:02;;;;;;;9.05;5.53;;;11.40;99.90;;;;;;5052104;28;20064;-77
2021/10/15 01:38:30;;;;;;;12.85;6.10;;;11.30;99.90;;;;;;5053212;28;20049;-78
2021/10/15 01:40:58;;;;;;;9.32;5.82;;;11.30;99.90;;;;;;5053967;28;20203;-78
2021/10/15 01:43:26;;;;;;;10.07;5.65;;;11.20;99.90;;;;;;5058780;28;20064;-78
2021/10/15 01:45:54;;;;;;;12.77;6.30;;;11.20;99.90;;;;;;5058129;28;20048;-78
2021/10/15 01:48:24;;;;;;;8.88;5.70;;;11.20;99.90;;;;;;5060220;28;20425;-78
2021/10/15 01:50:52;;;;;;;11.05;6.03;;;11.10;99.90;;;;;;5055757;28;20088;-79
2021/10/15 01:53:19;;;;;;;9.93;6.20;;;11.10;99.90;;;;;;5055854;28;20425;-78
2021/10/15 01:55:48;;;;;;;10.13;5.85;;;11.00;99.90;;;;;;5055098;28;20063;-79
2021/10/15 01:58:17;;;;;;;9.90;5.80;;;11.00;99.90;;;;;;5056629;28;20041;-79
2021/10/15 02:00:44;;;;;;;11.32;5.70;;;11.00;99.90;;;;;;5058681;28;20080;-79
2021/10/15 02:03:11;;;;;;;12.80;6.10;;;11.00;99.90;;;;;;5057825;28;20504;-79
2021/10/15 02:05:38;;;;;;;12.45;5.90;;;11.00;99.90;;;;;;5056463;28;20495;-79
2021/10/15 02:08:05;;;;;;;11.55;5.85;;;11.00;99.90;;;;;;5055867;28;20489;-77
2021/10/15 02:10:32;;;;;;;12.95;5.90;;;10.90;99.90;;;;;;5056258;28;20056;-78
2021/10/15 02:13:01;;;;;;;11.80;6.28;;;10.90;99.90;;;;;;5056466;28;20128;-76
2021/10/15 02:15:28;;;;;;;10.02;5.80;;;10.90;99.90;;;;;;5054718;28;20076;-78
2021/10/15 02:17:54;;;;;;;9.18;6.07;;;10.90;99.90;;;;;;5054669;28;20049;-78
2021/10/15 02:20:22;;;;;;;9.25;5.88;;;10.90;99.90;;;;;;5055637;28;20473;-78
2021/10/15 02:22:50;;;;;;;8.73;5.75;;;10.90;99.90;;;;;;5056908;28;20057;-78
2021/10/15 02:25:18;;;;;;;9.57;5.95;;;10.80;99.90;;;;;;5056905;28;20052;-78
2021/10/15 02:27:46;;;;;;;8.32;5.50;;;10.70;99.90;;;;;;5055890;28;20131;-78
2021/10/15 02:30:16;;;;;;;8.73;5.95;;;10.70;99.90;;;;;;5060549;28;20080;-79
2021/10/15 02:32:44;;;;;;;10.10;5.82;;;10.60;99.90;;;;;;5059345;28;20103;-80
2021/10/15 02:35:12;;;;;;;10.27;5.88;;;10.60;99.90;;;;;;5057565;28;20084;-78
2021/10/15 02:37:39;;;;;;;13.68;6.05;;;10.50;99.90;;;;;;5056671;28;20080;-79
2021/10/15 02:40:08;;;;;;;10.15;6.03;;;10.40;99.90;;;;;;5055863;28;20461;-78
2021/10/15 02:42:35;;;;;;;8.18;5.70;;;10.40;99.90;;;;;;5055307;28;20476;-78
2021/10/15 02:45:04;;;;;;;10.50;6.00;;;10.30;99.90;;;;;;5057625;28;20477;-79
2021/10/15 02:47:33;;;;;;;11.48;6.38;;;10.30;99.90;;;;;;5058937;28;20076;-79
2021/10/15 02:50:00;;;;;;;10.90;6.10;;;10.20;99.90;;;;;;5059079;28;20603;-79
2021/10/15 02:52:26;;;;;;;11.38;6.28;;;10.20;99.90;;;;;;5057416;28;20362;-80
2021/10/15 02:54:53;;;;;;;11.70;5.63;;;10.20;99.90;;;;;;5057149;28;20560;-80
2021/10/15 02:57:20;;;;;;;10.65;6.28;;;10.30;99.90;;;;;;5057048;28;20049;-79
2021/10/15 02:59:47;;;;;;;10.20;6.20;;;10.30;99.90;;;;;;5056069;28;20045;-79
2021/10/15 03:02:14;;;;;;;12.35;6.20;;;10.20;99.90;;;;;;5058424;28;20048;-79
2021/10/15 03:04:43;;;;;;;8.88;6.45;;;10.30;99.90;;;;;;5055397;28;20131;-78
2021/10/15 03:07:09;;;;;;;12.63;5.85;;;10.30;99.90;;;;;;5054173;28;20128;-78
2021/10/15 03:09:36;;;;;;;10.82;6.03;;;10.30;99.90;;;;;;5055125;28;20131;-79
2021/10/15 03:12:06;;;;;;;10.73;6.32;;;10.40;99.90;;;;;;5056184;28;20118;-78
2021/10/15 03:14:37;;;;;;;9.25;5.45;;;10.40;99.90;;;;;;5053913;28;20049;-79
2021/10/15 03:17:04;;;;;;;10.82;6.53;;;10.50;99.90;;;;;;5054133;28;20040;-78
2021/10/15 03:19:31;;;;;;;12.13;6.63;;;10.60;99.90;;;;;;5053377;28;20095;-78
2021/10/15 03:21:59;;;;;;;11.43;6.07;;;10.70;99.90;;;;;;5053786;28;20106;-79
2021/10/15 03:24:26;;;;;;;11.30;6.50;;;10.70;99.90;;;;;;5053888;28;20053;-79
2021/10/15 03:26:53;;;;;;;9.95;5.97;;;10.70;99.90;;;;;;5052495;28;20079;-78
2021/10/15 03:29:20;;;;;;;9.32;6.13;;;10.80;99.90;;;;;;5052716;28;20127;-80
2021/10/15 03:31:47;;;;;;;11.20;6.40;;;10.80;99.90;;;;;;5052563;28;20152;-77
2021/10/15 03:34:14;;;;;;;12.13;6.38;;;10.80;99.90;;;;;;5049292;28;20124;-78
2021/10/15 03:36:41;;;;;;;8.63;6.50;;;10.80;99.90;;;;;;5051789;28;20049;-78
2021/10/15 03:39:10;;;;;;;9.70;6.00;;;10.80;99.90;;;;;;5051202;28;20514;-78
2021/10/15 03:41:38;;;;;;;30.95;16.90;;;10.90;99.90;;;;;;5052313;28;20436;-78
2021/10/15 03:44:05;;;;;;;11.82;6.20;;;10.90;99.90;;;;;;5051717;28;20049;-78
2021/10/15 03:46:32;;;;;;;13.82;6.57;;;10.80;99.90;;;;;;5051477;28;20045;-79
2021/10/15 03:48:59;;;;;;;11.23;6.55;;;10.80;99.90;;;;;;5050884;28;20048;-79
2021/10/15 03:51:26;;;;;;;12.75;8.73;;;10.80;99.90;;;;;;5051716;28;20135;-77
2021/10/15 03:53:53;;;;;;;19.08;12.40;;;10.80;99.90;;;;;;5052027;28;20055;-79
2021/10/15 03:56:21;;;;;;;12.07;7.18;;;10.80;99.90;;;;;;5052732;28;20139;-78
2021/10/15 03:58:48;;;;;;;10.85;6.88;;;10.80;99.90;;;;;;5051055;28;20056;-79
2021/10/15 04:01:15;;;;;;;10.68;7.15;;;10.80;99.90;;;;;;5051014;28;20098;-77
2021/10/15 04:03:42;;;;;;;11.38;7.70;;;10.80;99.90;;;;;;5050813;28;20080;-79
2021/10/15 04:06:09;;;;;;;24.88;17.83;;;10.80;99.90;;;;;;5051771;28;20127;-78
2021/10/15 04:08:36;;;;;;;14.15;9.13;;;10.80;99.90;;;;;;5050155;28;20076;-77
2021/10/15 04:11:03;;;;;;;24.08;14.43;;;10.80;99.90;;;;;;5052240;28;20101;-78
2021/10/15 04:13:32;;;;;;;12.32;8.82;;;10.80;99.90;;;;;;5053590;28;20131;-78
2021/10/15 04:16:01;;;;;;;17.20;10.77;;;10.80;99.90;;;;;;5053997;28;20045;-78
2021/10/15 04:18:28;;;;;;;15.10;9.57;;;10.80;99.90;;;;;;5052084;28;20049;-78
2021/10/15 04:20:57;;;;;;;17.88;11.65;;;10.80;99.90;;;;;;5051938;28;20057;-79
2021/10/15 04:23:24;;;;;;;11.23;7.68;;;10.90;99.90;;;;;;5053219;28;20073;-78
2021/10/15 04:25:51;;;;;;;10.30;6.78;;;10.90;99.90;;;;;;5054867;28;20110;-78
2021/10/15 04:28:18;;;;;;;11.88;8.25;;;11.00;99.90;;;;;;5053632;28;20107;-78
2021/10/15 04:30:47;;;;;;;26.65;17.23;;;11.00;99.90;;;;;;5054468;28;20148;-77
2021/10/15 04:33:15;;;;;;;18.67;11.73;;;11.10;99.90;;;;;;5053765;28;20469;-78
2021/10/15 04:35:42;;;;;;;17.50;11.30;;;11.10;99.90;;;;;;5053950;28;20469;-77
2021/10/15 04:38:09;;;;;;;15.00;7.43;;;11.20;99.90;;;;;;5055747;28;20057;-78
2021/10/15 04:40:36;;;;;;;10.27;9.02;;;11.30;99.90;;;;;;5053687;28;20512;-77
2021/10/15 04:43:03;;;;;;;9.45;6.78;;;11.30;99.90;;;;;;5052526;28;20132;-78
2021/10/15 04:45:30;;;;;;;13.95;8.43;;;11.40;99.90;;;;;;5050338;28;20079;-78
2021/10/15 04:47:58;;;;;;;14.35;7.05;;;11.40;99.90;;;;;;5052413;28;20050;-77
2021/10/15 04:50:25;;;;;;;13.50;7.32;;;11.40;99.90;;;;;;5051720;28;20099;-78
2021/10/15 04:52:52;;;;;;;17.42;7.47;;;11.40;99.90;;;;;;5051264;28;20124;-78
2021/10/15 04:55:19;;;;;;;11.50;8.80;;;11.40;99.90;;;;;;5051678;28;20136;-78
2021/10/15 04:57:46;;;;;;;13.05;7.88;;;11.50;99.90;;;;;;5051350;28;20052;-78
2021/10/15 05:00:13;;;;;;;11.57;7.30;;;11.50;99.90;;;;;;5052318;28;20087;-78
2021/10/15 05:02:41;;;;;;;14.85;7.15;;;11.50;99.90;;;;;;5051122;28;20123;-79
2021/10/15 05:05:10;;;;;;;12.85;7.13;;;11.50;99.90;;;;;;5051259;28;20155;-81
2021/10/15 05:07:37;;;;;;;15.23;6.82;;;11.50;99.90;;;;;;5050615;28;20501;-79
2021/10/15 05:10:05;;;;;;;11.98;7.28;;;11.50;99.90;;;;;;5051831;28;20382;-80
2021/10/15 05:12:32;;;;;;;12.25;6.88;;;11.50;99.90;;;;;;5051268;28;20144;-78
2021/10/15 05:14:59;;;;;;;9.43;7.13;;;11.40;99.90;;;;;;5051229;28;20464;-79
2021/10/15 05:17:26;;;;;;;12.52;7.38;;;11.40;99.90;;;;;;5052394;28;20132;-78
2021/10/15 05:19:53;;;;;;;11.98;7.10;;;11.40;99.90;;;;;;5052550;28;20060;-81
2021/10/15 05:22:21;;;;;;;16.88;7.75;;;11.40;99.90;;;;;;5052901;28;20498;-79
2021/10/15 05:24:48;;;;;;;15.98;7.32;;;11.40;99.90;;;;;;5053144;28;20414;-79
2021/10/15 05:27:15;;;;;;;12.68;7.28;;;11.40;99.90;;;;;;5052289;28;20051;-77
2021/10/15 05:29:47;;;;;;;15.70;7.85;;;11.40;99.90;;;;;;5054418;28;20140;-80
2021/10/15 05:32:15;;;;;;;14.07;7.63;;;11.40;99.90;;;;;;5056344;28;20049;-79
2021/10/15 05:34:42;;;;;;;10.85;7.80;;;11.40;99.90;;;;;;5052425;28;20056;-80
2021/10/15 05:37:09;;;;;;;15.20;7.60;;;11.40;99.90;;;;;;5051153;28;20049;-78
2021/10/15 05:39:37;;;;;;;11.75;7.20;;;11.40;99.90;;;;;;5056688;23;20144;-76
2021/10/15 05:42:05;;;;;;;10.77;7.57;;;11.40;99.90;;;;;;5032037;28;20103;-76
2021/10/15 05:44:32;;;;;;;11.07;7.50;;;11.40;99.90;;;;;;5032721;28;20149;-77
2021/10/15 05:47:03;;;;;;;10.50;7.50;;;11.30;99.90;;;;;;5031974;28;20440;-76
2021/10/15 05:49:30;;;;;;;16.23;7.93;;;11.40;99.90;;;;;;5032424;28;20434;-76
2021/10/15 05:52:04;;;;;;;11.32;7.78;;;11.40;99.90;;;;;;5032325;28;20564;-76
2021/10/15 05:54:39;;;;;;;13.73;7.60;;;11.40;99.90;;;;;;5032359;28;20414;-75
2021/10/15 05:59:52;;;;;;;13.00;7.65;;;11.40;99.90;;;;;;5025307;28;20056;-76
2021/10/15 06:02:19;;;;;;;12.32;7.70;;;11.40;99.90;;;;;;5020660;28;20050;-75
2021/10/15 06:16:14;;;;;;;16.35;8.30;;;11.50;99.90;;;;;;5000129;28;20189;-76
2021/10/15 06:18:46;;;;;;;16.55;8.00;;;11.50;99.90;;;;;;4998446;28;20215;-76
2021/10/15 06:21:13;;;;;;;15.15;10.82;;;11.50;99.90;;;;;;5001209;28;20053;-76
2021/10/15 06:23:40;;;;;;;15.23;7.32;;;11.60;99.90;;;;;;5017354;28;20136;-74
2021/10/15 06:26:09;;;;;;;14.60;9.13;;;11.60;99.90;;;;;;5021231;28;20112;-76
2021/10/15 06:28:38;;;;;;;14.18;7.88;;;11.60;99.90;;;;;;5021651;28;20137;-75
2021/10/15 06:31:04;;;;;;;15.50;8.10;;;11.60;99.90;;;;;;5019460;28;20056;-77
2021/10/15 06:33:31;;;;;;;11.07;7.13;;;11.70;99.90;;;;;;5031663;28;20081;-78
2021/10/15 06:35:58;;;;;;;13.65;7.80;;;11.70;99.90;;;;;;5023052;28;20052;-77
2021/10/15 06:38:25;;;;;;;15.25;7.93;;;11.80;99.90;;;;;;5025243;28;20077;-76
2021/10/15 06:40:52;;;;;;;12.27;7.65;;;11.80;99.90;;;;;;5027529;28;20081;-77
2021/10/15 06:43:19;;;;;;;16.23;8.18;;;11.90;99.90;;;;;;5023971;28;20046;-76
2021/10/15 06:45:47;;;;;;;13.55;9.25;;;12.00;99.90;;;;;;5018198;28;20449;-76
2021/10/15 06:48:14;;;;;;;14.20;7.97;;;12.00;99.90;;;;;;5023422;28;20041;-75
2021/10/15 06:50:41;;;;;;;12.55;7.82;;;12.00;99.90;;;;;;5024552;28;20501;-75
2021/10/15 06:53:09;;;;;;;13.95;8.15;;;12.10;99.90;;;;;;5021614;28;20077;-74
2021/10/15 06:55:36;;;;;;;15.75;7.78;;;12.20;99.90;;;;;;5022250;28;20045;-74
2021/10/15 06:58:04;;;;;;;12.27;7.78;;;12.20;99.90;;;;;;5025423;28;20041;-75
2021/10/15 07:00:31;;;;;;;12.75;7.88;;;12.20;99.90;;;;;;5024196;28;20128;-75
2021/10/15 07:03:00;;;;;;;11.18;7.22;;;12.20;99.90;;;;;;5023387;28;20124;-75
2021/10/15 07:05:27;;;;;;;12.35;7.78;;;12.30;99.90;;;;;;5022924;28;20525;-75
2021/10/15 07:07:54;;;;;;;12.75;7.75;;;12.30;99.90;;;;;;5016343;28;20056;-75
2021/10/15 07:10:21;;;;;;;10.38;7.15;;;12.30;99.90;;;;;;5024557;28;20046;-76
2021/10/15 07:12:47;;;;;;;13.45;7.82;;;12.30;99.90;;;;;;5032163;28;20046;-77
2021/10/15 07:15:16;;;;;;;16.45;8.27;;;12.30;99.90;;;;;;5030720;28;20060;-76
2021/10/15 07:17:44;;;;;;;10.25;7.10;;;12.30;99.90;;;;;;5025990;28;20042;-77
2021/10/15 07:20:12;;;;;;;15.25;7.45;;;12.30;99.90;;;;;;5034635;28;20056;-76
2021/10/15 07:22:40;;;;;;;11.13;7.13;;;12.40;99.90;;;;;;5034220;28;20132;-76
2021/10/15 07:25:08;;;;;;;14.63;7.68;;;12.40;99.90;;;;;;5035248;28;20117;-76
2021/10/15 07:27:36;;;;;;;12.30;7.47;;;12.40;99.90;;;;;;5035397;28;20049;-75
2021/10/15 07:30:04;;;;;;;33.20;17.05;;;12.40;99.90;;;;;;5035075;28;20101;-79
2021/10/15 07:32:32;;;;;;;13.88;8.23;;;12.40;99.90;;;;;;5034959;28;20056;-78
2021/10/15 07:34:59;;;;;;;11.57;7.50;;;12.40;99.90;;;;;;5034891;28;20136;-77
2021/10/15 07:37:27;;;;;;;10.57;7.60;;;12.40;99.90;;;;;;5034141;28;20136;-78
2021/10/15 07:39:54;;;;;;;12.05;8.10;;;12.50;99.90;;;;;;5034641;28;20524;-78
2021/10/15 07:42:21;;;;;;;12.82;7.82;;;12.50;99.90;;;;;;5034488;28;20136;-78
2021/10/15 07:44:48;;;;;;;13.35;7.82;;;12.50;99.90;;;;;;5034648;28;20429;-78
2021/10/15 07:47:15;;;;;;;14.25;7.70;;;12.60;99.90;;;;;;5034756;28;20498;-78
2021/10/15 07:49:42;;;;;;;11.68;7.68;;;12.70;99.90;;;;;;5034422;28;20052;-78
2021/10/15 07:52:09;;;;;;;12.00;7.25;;;12.70;99.90;;;;;;5036264;28;20053;-78
2021/10/15 07:54:37;;;;;;;14.90;7.90;;;12.80;99.90;;;;;;5035551;28;20059;-78
2021/10/15 07:57:05;;;;;;;11.63;7.57;;;12.80;99.90;;;;;;5034777;28;20049;-79
2021/10/15 07:59:33;;;;;;;14.13;7.88;;;12.80;99.90;;;;;;5035025;28;20049;-78
2021/10/15 08:02:00;;;;;;;12.70;8.00;;;12.90;99.90;;;;;;5034356;28;20060;-78
2021/10/15 08:04:26;;;;;;;12.82;7.30;;;13.00;99.90;;;;;;5034902;28;20103;-78
2021/10/15 08:06:55;;;;;;;12.65;8.00;;;13.00;99.90;;;;;;5034711;28;20053;-76
2021/10/15 08:09:22;;;;;;;11.63;7.97;;;13.00;99.90;;;;;;5034079;28;20132;-75
2021/10/15 08:11:50;;;;;;;11.35;7.72;;;13.10;99.90;;;;;;5033837;28;20085;-77
2021/10/15 08:14:18;;;;;;;12.43;8.35;;;13.10;99.90;;;;;;5033917;28;20132;-77
2021/10/15 08:16:45;;;;;;;13.35;8.50;;;13.10;99.90;;;;;;5033688;28;20115;-77
2021/10/15 08:19:12;;;;;;;12.95;7.97;;;13.20;99.90;;;;;;5033621;28;20137;-77
2021/10/15 08:21:39;;;;;;;13.80;8.68;;;13.20;99.90;;;;;;5034017;28;20220;-77
2021/10/15 08:24:06;;;;;;;11.63;8.30;;;13.30;99.90;;;;;;5033867;28;20164;-78
2021/10/15 08:26:33;;;;;;;14.27;8.23;;;13.30;99.90;;;;;;5033791;28;20096;-77
2021/10/15 08:29:01;;;;;;;17.55;8.65;;;13.30;99.90;;;;;;5033728;28;20049;-78
2021/10/15 08:31:29;;;;;;;13.65;8.73;;;13.30;99.90;;;;;;5034743;28;20132;-78
2021/10/15 08:33:57;;;;;;;14.75;8.07;;;13.30;99.90;;;;;;5034238;28;20117;-78
2021/10/15 08:36:24;;;;;;;15.32;8.85;;;13.40;99.90;;;;;;5034157;28;20087;-77
2021/10/15 08:38:51;;;;;;;13.43;8.95;;;13.40;99.90;;;;;;5033653;28;20053;-79
2021/10/15 08:41:20;;;;;;;13.55;8.30;;;13.40;99.90;;;;;;5033079;28;20072;-77
2021/10/15 08:43:47;;;;;;;19.00;8.50;;;13.50;99.90;;;;;;5033436;28;20432;-78
2021/10/15 08:46:16;;;;;;;12.15;8.57;;;13.40;99.90;;;;;;5033499;28;20128;-78
2021/10/15 08:48:43;;;;;;;16.15;8.45;;;13.50;99.90;;;;;;5033426;28;20133;-78
2021/10/15 08:51:10;;;;;;;13.38;8.30;;;13.50;99.90;;;;;;5033500;28;20143;-78
2021/10/15 08:53:48;;;;;;;12.13;8.48;;;13.60;99.90;;;;;;5033242;28;20532;-78
2021/10/15 08:56:17;;;;;;;14.93;8.32;;;13.60;99.90;;;;;;5033022;28;20478;-78
2021/10/15 08:58:45;;;;;;;13.85;8.00;;;13.60;99.90;;;;;;5033333;28;20071;-79
2021/10/15 09:01:12;;;;;;;17.35;9.55;;;13.70;99.90;;;;;;5023416;28;20085;-77
2021/10/15 09:03:41;;;;;;;13.85;8.23;;;13.70;99.90;;;;;;5012538;28;20137;-77
2021/10/15 09:06:10;;;;;;;11.52;8.65;;;13.70;99.90;;;;;;5012515;28;20050;-78
2021/10/15 09:08:47;;;;;;;17.23;8.90;;;13.70;99.90;;;;;;5012667;28;20050;-78
2021/10/15 09:11:28;;;;;;;15.40;9.82;;;13.80;99.90;;;;;;5012991;28;20049;-78
2021/10/15 09:14:08;;;;;;;15.32;9.25;;;14.00;99.90;;;;;;5012109;28;20332;-77
2021/10/15 09:17:01;;;;;;;15.80;10.65;;;14.10;99.90;;;;;;5011886;28;20052;-78
2021/10/15 09:19:30;;;;;;;;;;;14.10;99.90;;;;;;5012685;28;20053;-78
2021/10/15 09:22:23;;;;;;;13.35;9.45;;;14.10;99.90;;;;;;5031052;28;19921;-77
2021/10/15 09:24:53;;;;;;;14.20;9.23;;;14.00;99.90;;;;;;5032491;28;20059;-78
2021/10/15 09:27:27;;;;;;;15.68;9.98;;;14.00;99.90;;;;;;5014673;28;20060;-78
2021/10/15 09:29:57;;;;;;;16.52;9.55;;;14.00;99.90;;;;;;5012414;28;20088;-79
2021/10/15 09:32:26;;;;;;;20.58;9.85;;;14.00;99.90;;;;;;5011390;28;20085;-79
2021/10/15 09:34:57;;;;;;;14.98;10.23;;;13.90;99.90;;;;;;5011969;28;20137;-78
2021/10/15 09:37:26;;;;;;;20.23;11.52;;;14.00;99.90;;;;;;5011798;28;20060;-78
2021/10/15 09:40:04;;;;;;;17.08;11.20;;;14.00;99.90;;;;;;5012507;28;20062;-78
2021/10/15 09:42:31;;;;;;;17.95;12.02;;;14.00;99.90;;;;;;5011528;28;20132;-79
2021/10/15 09:45:03;;;;;;;19.95;12.52;;;14.00;99.90;;;;;;5012551;28;20057;-77
2021/10/15 09:47:30;;;;;;;18.13;12.18;;;14.00;99.90;;;;;;5013061;28;20135;-77
2021/10/15 09:50:03;;;;;;;20.98;12.52;;;14.00;99.90;;;;;;5012412;28;20049;-78
2021/10/15 09:52:36;;;;;;;21.45;13.77;;;13.70;99.90;;;;;;5010981;28;20050;-78
2021/10/15 09:55:14;;;;;;;23.13;14.63;;;13.50;99.90;;;;;;5013649;28;20128;-79
2021/10/15 09:57:42;;;;;;;21.60;14.27;;;13.30;99.90;;;;;;5014032;28;20049;-80
2021/10/15 10:00:11;;;;;;;26.42;14.88;;;13.20;99.90;;;;;;5013372;28;20042;-78
2021/10/15 10:02:39;;;;;;;25.75;14.73;;;13.10;99.90;;;;;;5012017;28;20046;-78
2021/10/15 10:05:12;;;;;;;30.55;15.80;;;13.10;99.90;;;;;;5014097;28;20116;-78
2021/10/15 10:07:39;;;;;;;24.67;15.20;;;13.00;99.90;;;;;;5015777;28;20053;-78
2021/10/15 10:10:08;;;;;;;22.27;15.60;;;13.10;99.90;;;;;;5017070;28;20056;-79
2021/10/15 10:12:37;;;;;;;25.48;15.98;;;13.10;99.90;;;;;;5015790;28;20132;-79
2021/10/15 10:15:05;;;;;;;23.92;15.52;;;13.20;99.90;;;;;;5016703;28;20049;-79
2021/10/15 10:17:37;;;;;;;21.98;14.85;;;13.20;99.90;;;;;;5024678;28;20049;-78
2021/10/15 10:20:11;;;;;;;19.98;13.57;;;13.30;99.90;;;;;;5029670;28;20081;-79
2021/10/15 10:22:46;;;;;;;20.42;13.65;;;13.40;99.90;;;;;;5036135;28;20056;-79
2021/10/15 10:25:19;;;;;;;18.27;13.27;;;13.50;99.90;;;;;;5036568;28;20049;-79
2021/10/15 10:27:50;;;;;;;19.58;14.55;;;13.60;99.90;;;;;;5036851;28;20136;-78
2021/10/15 10:30:17;;;;;;;18.40;14.07;;;13.60;99.90;;;;;;5036813;28;20045;-80
2021/10/15 10:33:00;;;;;;;21.70;14.32;;;13.60;99.90;;;;;;5035907;28;20557;-79
2021/10/15 10:35:29;;;;;;;20.60;14.35;;;13.50;99.90;;;;;;5036465;28;20049;-79
2021/10/15 10:38:26;;;;;;;19.02;13.82;;;13.60;99.90;;;;;;5036629;28;20050;-79
2021/10/15 10:41:21;;;;;;;18.55;14.55;;;13.70;99.90;;;;;;5037399;28;20460;-79
2021/10/15 10:44:21;;;;;;;19.35;13.73;;;13.80;99.90;;;;;;5035009;28;20056;-79
2021/10/15 10:47:14;;;;;;;21.58;14.77;;;13.80;99.90;;;;;;5036869;28;20049;-79
2021/10/15 10:49:42;;;;;;;15.05;12.43;;;13.80;99.90;;;;;;5037103;28;20560;-80
2021/10/15 10:52:22;;;;;;;16.83;11.85;;;13.90;99.90;;;;;;5036054;28;20092;-79
2021/10/15 10:54:49;;;;;;;15.07;11.95;;;13.80;99.90;;;;;;5035848;28;20076;-79
2021/10/15 10:57:28;;;;;;;15.07;11.80;;;13.80;99.90;;;;;;5036067;28;20489;-78
2021/10/15 11:00:24;;;;;;;15.55;11.75;;;13.90;99.90;;;;;;5036597;28;20053;-79
2021/10/15 11:02:53;;;;;;;15.82;11.18;;;14.00;99.90;;;;;;5014742;28;20063;-77
2021/10/15 11:05:31;;;;;;;14.98;11.23;;;14.00;99.90;;;;;;5015118;28;20548;-78
2021/10/15 11:08:33;;;;;;;14.60;11.93;;;14.10;99.90;;;;;;5015094;28;20050;-78
2021/10/15 11:11:41;;;;;;;16.52;12.38;;;14.00;99.90;;;;;;5015567;28;20569;-77
2021/10/15 11:14:08;;;;;;;13.48;11.50;;;14.20;99.90;;;;;;5014078;28;20522;-78
2021/10/15 11:16:35;;;;;;;15.43;11.77;;;14.10;99.90;;;;;;5014525;28;20141;-76
2021/10/15 11:19:02;;;;;;;17.58;13.20;;;14.10;99.90;;;;;;5015295;28;20133;-78
2021/10/15 11:21:28;;;;;;;16.20;13.13;;;14.00;99.90;;;;;;5015131;28;20085;-78
2021/10/15 11:24:12;;;;;;;15.13;12.50;;;13.90;99.90;;;;;;5013878;28;20128;-78
2021/10/15 11:26:39;;;;;;;10.85;8.20;;;13.90;99.90;;;;;;5014503;28;20050;-77
2021/10/15 11:29:06;;;;;;;8.30;4.68;;;13.70;99.90;;;;;;5014950;28;20057;-77
2021/10/15 11:31:33;;;;;;;6.60;4.40;;;13.50;99.90;;;;;;5025682;28;20132;-77
2021/10/15 11:34:11;;;;;;;5.75;4.18;;;13.40;99.90;;;;;;5034803;28;20063;-77
2021/10/15 11:36:38;;;;;;;6.78;4.63;;;13.40;99.90;;;;;;5035252;28;20422;-77
2021/10/15 11:39:07;;;;;;;4.72;3.85;;;13.40;99.90;;;;;;5036136;28;20045;-78
2021/10/15 11:41:33;;;;;;;6.03;3.58;;;13.50;99.90;;;;;;5035959;28;20049;-78
2021/10/15 11:44:00;;;;;;;5.38;3.30;;;13.50;99.90;;;;;;5034681;28;20052;-77
2021/10/15 11:46:33;;;;;;;5.45;3.40;;;13.50;99.90;;;;;;5035511;28;20085;-78
2021/10/15 11:48:59;;;;;;;5.88;3.45;;;13.50;99.90;;;;;;5035668;28;20053;-78
2021/10/15 11:51:28;;;;;;;5.10;3.67;;;13.50;99.90;;;;;;5034756;28;20132;-77
2021/10/15 11:53:56;;;;;;;7.10;3.55;;;13.50;99.90;;;;;;5034975;28;20049;-78
2021/10/15 11:56:27;;;;;;;7.65;3.47;;;13.70;99.90;;;;;;5035649;28;20156;-78
2021/10/15 11:58:55;;;;;;;6.18;3.70;;;13.90;99.90;;;;;;5035397;28;20125;-78
2021/10/15 12:01:26;;;;;;;6.10;4.30;;;13.90;99.90;;;;;;5035221;28;20042;-79
2021/10/15 12:03:55;;;;;;;5.35;3.75;;;14.00;99.90;;;;;;5034528;28;20071;-78
2021/10/15 12:06:27;;;;;;;6.35;3.90;;;14.20;99.90;;;;;;5035246;28;20064;-78
2021/10/15 12:08:57;;;;;;;7.72;4.03;;;14.40;99.90;;;;;;5034514;28;20066;-78
2021/10/15 12:11:44;;;;;;;5.85;4.25;;;14.50;99.90;;;;;;5034031;28;20548;-78
2021/10/15 12:14:13;;;;;;;6.80;4.15;;;14.50;99.90;;;;;;5033834;28;20053;-77
2021/10/15 12:58:53;;;;;;;7.22;3.42;;;14.90;99.90;;;;;;5108401;27;1326926;-82
2021/10/15 13:16:18;;;;;;;8.65;3.50;;;15.40;99.90;;;;;;5070514;28;20402;-77
2021/10/15 13:18:45;;;;;;;6.25;3.20;;;16.20;99.90;;;;;;5052030;28;20141;-79
2021/10/15 13:21:12;;;;;;;9.10;3.60;;;16.00;99.90;;;;;;5051868;28;20057;-78
2021/10/15 13:23:40;;;;;;;5.07;3.42;;;15.80;99.90;;;;;;5050885;28;20498;-78
2021/10/15 13:28:47;;;;;;;8.88;4.00;;;15.50;99.90;;;;;;5088997;28;20051;-78
2021/10/15 13:31:14;;;;;;;8.57;4.43;;;15.30;99.90;;;;;;5088606;28;20565;-79
2021/10/15 13:33:42;;;;;;;8.65;4.10;;;15.20;99.90;;;;;;5088889;28;20048;-79
2021/10/15 13:36:09;;;;;;;7.82;3.92;;;15.10;99.90;;;;;;5089275;28;20083;-78
2021/10/15 13:38:37;;;;;;;12.95;4.50;;;15.10;99.90;;;;;;5089117;28;20072;-79
2021/10/15 13:41:08;;;;;;;9.50;3.75;;;15.10;99.90;;;;;;5089207;28;20505;-81
2021/10/15 13:43:52;;;;;;;9.93;4.50;;;15.10;99.90;;;;;;5088569;28;20097;-79
2021/10/15 13:46:32;;;;;;;9.32;4.15;;;15.10;99.90;;;;;;5089503;28;20060;-78
2021/10/15 13:51:56;;;;;;;9.77;4.15;;;14.90;99.90;;;;;;5025961;28;20049;-78
2021/10/15 13:54:23;;;;;;;10.18;3.90;;;14.90;99.90;;;;;;5073034;28;20127;-79
2021/10/15 13:56:50;;;;;;;10.07;4.13;;;15.00;99.90;;;;;;5087705;28;20127;-78
2021/10/15 13:59:21;;;;;;;9.60;4.03;;;15.00;99.90;;;;;;5088438;28;20106;-79
2021/10/15 14:01:56;;;;;;;8.68;4.28;;;15.10;99.90;;;;;;5089512;28;20055;-79
2021/10/15 14:04:30;;;;;;;8.32;4.18;;;15.20;99.90;;;;;;5088691;28;20113;-79
2021/10/15 14:06:57;;;;;;;13.45;4.32;;;15.30;99.90;;;;;;5088156;28;20426;-79